createdAt,value
2016-08-02T00:00:01.124Z,15.51
2016-08-02T00:01:01.147Z,15.49
2016-08-02T00:02:01.176Z,15.51
2016-08-02T00:03:01.208Z,15.53
2016-08-02T00:04:01.222Z,15.54
2016-08-02T00:05:01.253Z,15.51
2016-08-02T00:06:01.272Z,15.53
2016-08-02T00:07:01.294Z,15.44
2016-08-02T00:09:16.277Z,15.44
2016-08-02T00:11:01.404Z,15.49
2016-08-02T00:12:16.401Z,15.46
2016-08-02T00:13:16.376Z,15.43
2016-08-02T00:14:01.483Z,15.39
2016-08-02T00:15:01.506Z,15.41
2016-08-02T00:16:01.530Z,15.35
2016-08-02T00:17:01.553Z,15.36
2016-08-02T00:18:01.680Z,15.41
2016-08-02T00:19:01.603Z,15.31
2016-08-02T00:20:01.640Z,15.41
2016-08-02T00:21:01.658Z,15.39
2016-08-02T00:22:01.683Z,15.36
2016-08-02T00:23:16.639Z,15.34
2016-08-02T00:24:01.737Z,15.29
2016-08-02T00:27:01.815Z,15.13
2016-08-02T00:28:01.839Z,15.06
2016-08-02T00:29:16.783Z,14.95
2016-08-02T00:30:01.888Z,15.02
2016-08-02T00:31:01.918Z,15.02
2016-08-02T00:32:01.937Z,14.94
2016-08-02T00:33:01.967Z,14.94
2016-08-02T00:34:01.992Z,14.92
2016-08-02T00:35:02.018Z,14.98
2016-08-02T00:36:02.041Z,14.99
2016-08-02T00:37:02.085Z,15.02
2016-08-02T00:38:02.100Z,14.89
2016-08-02T00:39:02.122Z,14.91
2016-08-02T00:40:02.150Z,14.92
2016-08-02T00:41:02.165Z,14.81
2016-08-02T00:42:02.204Z,14.78
2016-08-02T00:43:02.225Z,14.73
2016-08-02T00:44:02.249Z,14.73
2016-08-02T00:45:17.197Z,14.65
2016-08-02T00:46:03.007Z,14.64
2016-08-02T00:47:02.326Z,14.5
2016-08-02T00:48:02.349Z,14.51
2016-08-02T00:49:02.377Z,14.62
2016-08-02T00:50:02.398Z,14.62
2016-08-02T00:51:02.423Z,14.62
2016-08-02T00:52:02.450Z,14.65
2016-08-02T00:53:02.481Z,14.6
2016-08-02T00:54:02.517Z,14.51
2016-08-02T00:55:02.528Z,14.68
2016-08-02T00:56:02.551Z,14.6
2016-08-02T00:57:02.576Z,14.6
2016-08-02T00:58:02.605Z,14.55
2016-08-02T00:59:02.638Z,14.39
2016-08-02T01:00:17.577Z,14.35
2016-08-02T01:01:02.682Z,14.22
2016-08-02T01:02:02.704Z,14.18
2016-08-02T01:03:02.735Z,14.17
2016-08-02T01:04:02.753Z,14.27
2016-08-02T01:05:02.785Z,14.12
2016-08-02T01:06:02.811Z,14.12
2016-08-02T01:07:02.827Z,14.15
2016-08-02T01:08:02.858Z,14.2
2016-08-02T01:10:02.908Z,14.04
2016-08-02T01:11:02.930Z,14
2016-08-02T01:13:02.988Z,13.95
2016-08-02T01:14:03.010Z,13.99
2016-08-02T01:15:03.035Z,13.96
2016-08-02T01:16:03.059Z,13.92
2016-08-02T01:17:03.082Z,13.96
2016-08-02T01:18:03.214Z,13.87
2016-08-02T01:19:03.840Z,13.91
2016-08-02T01:20:03.177Z,13.92
2016-08-02T01:21:03.198Z,13.95
2016-08-02T01:22:03.225Z,14.1
2016-08-02T01:23:03.231Z,14.1
2016-08-02T01:24:03.262Z,14.1
2016-08-02T01:25:03.297Z,14.06
2016-08-02T01:26:03.328Z,13.97
2016-08-02T01:27:03.337Z,13.91
2016-08-02T01:28:03.361Z,13.91
2016-08-02T01:29:03.391Z,13.81
2016-08-02T01:30:03.414Z,13.77
2016-08-02T01:31:03.433Z,13.75
2016-08-02T01:32:18.384Z,13.75
2016-08-02T01:33:03.487Z,13.82
2016-08-02T01:34:03.512Z,13.75
2016-08-02T01:35:03.540Z,13.69
2016-08-02T01:36:03.567Z,13.79
2016-08-02T01:37:03.593Z,13.62
2016-08-02T01:38:03.614Z,13.67
2016-08-02T01:39:03.642Z,13.6
2016-08-02T01:40:03.664Z,13.63
2016-08-02T01:41:03.686Z,13.66
2016-08-02T01:42:03.722Z,13.6
2016-08-02T01:43:03.740Z,13.6
2016-08-02T01:44:03.814Z,13.55
2016-08-02T01:45:18.714Z,13.51
2016-08-02T01:46:03.814Z,13.64
2016-08-02T01:47:03.850Z,13.64
2016-08-02T01:48:18.786Z,13.62
2016-08-02T01:49:03.889Z,13.55
2016-08-02T01:50:03.916Z,13.62
2016-08-02T01:51:03.937Z,13.71
2016-08-02T01:52:03.964Z,13.64
2016-08-02T01:53:03.990Z,13.59
2016-08-02T01:54:04.010Z,13.6
2016-08-02T01:55:04.041Z,13.62
2016-08-02T01:56:04.062Z,13.71
2016-08-02T01:57:04.091Z,13.7
2016-08-02T01:58:04.119Z,13.62
2016-08-02T01:59:04.141Z,13.62
2016-08-02T02:00:19.090Z,13.62
2016-08-02T02:01:19.114Z,13.66
2016-08-02T02:02:04.212Z,13.64
2016-08-02T02:03:04.241Z,13.59
2016-08-02T02:04:19.185Z,13.63
2016-08-02T02:05:04.290Z,13.63
2016-08-02T02:06:04.314Z,13.59
2016-08-02T02:07:04.337Z,13.57
2016-08-02T02:08:04.370Z,13.67
2016-08-02T02:09:04.391Z,13.62
2016-08-02T02:10:04.416Z,13.63
2016-08-02T02:11:04.438Z,13.6
2016-08-02T02:12:04.463Z,13.64
2016-08-02T02:13:04.485Z,13.62
2016-08-02T02:14:04.515Z,13.59
2016-08-02T02:15:04.537Z,13.62
2016-08-02T02:16:04.564Z,13.51
2016-08-02T02:18:04.616Z,13.36
2016-08-02T02:19:04.640Z,13.36
2016-08-02T02:20:19.590Z,13.3
2016-08-02T02:21:04.688Z,13.17
2016-08-02T02:22:04.720Z,13.19
2016-08-02T02:23:04.739Z,13.19
2016-08-02T02:24:04.776Z,13.12
2016-08-02T02:25:04.803Z,13.15
2016-08-02T02:26:04.815Z,13.17
2016-08-02T02:27:04.845Z,13.12
2016-08-02T02:28:04.869Z,13.14
2016-08-02T02:29:04.889Z,13.04
2016-08-02T02:30:04.914Z,13.07
2016-08-02T02:31:04.941Z,13.14
2016-08-02T02:32:04.960Z,13.23
2016-08-02T02:33:04.989Z,13.2
2016-08-02T02:34:05.017Z,13.25
2016-08-02T02:35:20.010Z,13.17
2016-08-02T02:36:05.069Z,13.19
2016-08-02T02:37:05.092Z,13.2
2016-08-02T02:38:05.111Z,13.19
2016-08-02T02:39:05.148Z,13.15
2016-08-02T02:40:05.165Z,13.08
2016-08-02T02:41:05.189Z,13.04
2016-08-02T02:42:05.215Z,12.97
2016-08-02T02:43:05.238Z,12.92
2016-08-02T02:45:05.290Z,12.93
2016-08-02T02:46:05.312Z,12.95
2016-08-02T02:47:05.341Z,12.89
2016-08-02T02:48:05.360Z,12.92
2016-08-02T02:49:05.388Z,12.82
2016-08-02T02:50:05.420Z,12.89
2016-08-02T02:51:05.440Z,12.93
2016-08-02T02:52:05.463Z,12.95
2016-08-02T02:53:05.485Z,12.97
2016-08-02T02:54:21.265Z,13.07
2016-08-02T02:55:05.539Z,13.04
2016-08-02T02:56:05.565Z,12.93
2016-08-02T02:57:05.588Z,12.89
2016-08-02T02:58:05.608Z,12.92
2016-08-02T02:59:05.634Z,12.87
2016-08-02T03:00:05.668Z,12.83
2016-08-02T03:01:05.681Z,12.83
2016-08-02T03:02:05.710Z,12.83
2016-08-02T03:03:05.744Z,12.85
2016-08-02T03:04:05.763Z,12.74
2016-08-02T03:05:05.785Z,12.74
2016-08-02T03:06:05.812Z,12.74
2016-08-02T03:07:20.758Z,12.86
2016-08-02T03:08:05.861Z,12.82
2016-08-02T03:10:05.909Z,12.82
2016-08-02T03:11:05.931Z,12.77
2016-08-02T03:12:05.955Z,12.79
2016-08-02T03:13:06.668Z,12.82
2016-08-02T03:14:06.004Z,12.82
2016-08-02T03:15:06.023Z,12.79
2016-08-02T03:16:06.051Z,12.74
2016-08-02T03:17:06.082Z,12.68
2016-08-02T03:18:06.101Z,12.77
2016-08-02T03:20:06.150Z,12.87
2016-08-02T03:22:21.121Z,12.96
2016-08-02T03:23:21.151Z,12.87
2016-08-02T03:24:06.250Z,12.95
2016-08-02T03:25:06.271Z,12.93
2016-08-02T03:26:06.295Z,12.85
2016-08-02T03:27:06.320Z,12.75
2016-08-02T03:28:06.349Z,12.74
2016-08-02T03:29:06.366Z,12.64
2016-08-02T03:30:06.396Z,12.67
2016-08-02T03:31:07.123Z,12.65
2016-08-02T03:32:06.455Z,12.5
2016-08-02T03:33:06.468Z,12.56
2016-08-02T03:34:06.492Z,12.47
2016-08-02T03:35:06.521Z,12.53
2016-08-02T03:36:06.547Z,12.68
2016-08-02T03:38:06.594Z,12.77
2016-08-02T03:40:21.562Z,12.65
2016-08-02T03:41:06.666Z,12.64
2016-08-02T03:42:06.697Z,12.7
2016-08-02T03:43:06.715Z,12.68
2016-08-02T03:44:06.743Z,12.57
2016-08-02T03:45:06.767Z,12.6
2016-08-02T03:46:06.791Z,12.65
2016-08-02T03:47:06.812Z,12.64
2016-08-02T03:48:06.839Z,12.5
2016-08-02T03:49:06.866Z,12.6
2016-08-02T03:50:06.883Z,12.57
2016-08-02T03:52:06.937Z,12.6
2016-08-02T03:53:06.965Z,12.57
2016-08-02T03:54:06.999Z,12.59
2016-08-02T03:55:21.933Z,12.57
2016-08-02T03:56:07.034Z,12.78
2016-08-02T03:57:07.060Z,12.77
2016-08-02T03:58:07.086Z,12.87
2016-08-02T03:59:07.109Z,12.89
2016-08-02T04:00:07.136Z,13
2016-08-02T04:01:07.152Z,12.92
2016-08-02T04:02:07.185Z,12.95
2016-08-02T04:03:07.211Z,12.92
2016-08-02T04:04:07.239Z,12.93
2016-08-02T04:05:07.256Z,12.96
2016-08-02T04:06:07.290Z,13
2016-08-02T04:07:22.231Z,13.05
2016-08-02T04:08:07.328Z,13.19
2016-08-02T04:09:07.353Z,13.22
2016-08-02T04:10:22.304Z,13.12
2016-08-02T04:11:22.327Z,13.15
2016-08-02T04:12:07.434Z,13.26
2016-08-02T04:13:07.455Z,13.25
2016-08-02T04:14:07.487Z,13.2
2016-08-02T04:15:07.503Z,13.2
2016-08-02T04:16:07.526Z,13.19
2016-08-02T04:17:08.258Z,13.17
2016-08-02T04:18:07.576Z,13.22
2016-08-02T04:19:07.605Z,13.33
2016-08-02T04:20:07.627Z,13.29
2016-08-02T04:21:07.649Z,13.48
2016-08-02T04:22:22.603Z,13.48
2016-08-02T04:23:22.625Z,13.44
2016-08-02T04:24:07.728Z,13.51
2016-08-02T04:25:07.759Z,13.51
2016-08-02T04:26:07.792Z,13.59
2016-08-02T04:27:22.722Z,13.57
2016-08-02T04:28:07.827Z,13.57
2016-08-02T04:29:07.849Z,13.63
2016-08-02T04:30:07.876Z,13.69
2016-08-02T04:31:07.895Z,13.78
2016-08-02T04:32:07.920Z,13.88
2016-08-02T04:33:07.947Z,13.97
2016-08-02T04:34:07.975Z,14.12
2016-08-02T04:36:08.042Z,14.33
2016-08-02T04:37:08.060Z,14.51
2016-08-02T04:38:08.076Z,14.62
2016-08-02T04:39:08.103Z,14.65
2016-08-02T04:40:08.126Z,14.78
2016-08-02T04:41:08.153Z,14.88
2016-08-02T04:42:23.101Z,14.95
2016-08-02T04:43:08.204Z,15.02
2016-08-02T04:44:08.228Z,14.98
2016-08-02T04:45:08.245Z,15.02
2016-08-02T04:46:08.322Z,14.94
2016-08-02T04:47:08.298Z,15.06
2016-08-02T04:48:08.373Z,14.95
2016-08-02T04:49:08.349Z,15.11
2016-08-02T04:50:08.377Z,15.07
2016-08-02T04:51:08.410Z,15.09
2016-08-02T04:52:08.428Z,15.16
2016-08-02T04:53:08.450Z,15.11
2016-08-02T04:54:08.475Z,15.11
2016-08-02T04:56:08.526Z,15.06
2016-08-02T04:58:23.505Z,15.21
2016-08-02T04:59:08.603Z,15.29
2016-08-02T05:00:08.636Z,15.71
2016-08-02T05:01:08.668Z,16.56
2016-08-02T05:02:08.708Z,17.58
2016-08-02T05:03:08.713Z,18.51
2016-08-02T05:04:08.733Z,19.31
2016-08-02T05:05:08.756Z,20.13
2016-08-02T05:06:08.790Z,20.69
2016-08-02T05:07:08.815Z,21.24
2016-08-02T05:08:08.843Z,21.64
2016-08-02T05:09:08.874Z,22.07
2016-08-02T05:10:23.826Z,23.16
2016-08-02T05:11:08.922Z,23.43
2016-08-02T05:12:08.960Z,23.85
2016-08-02T05:13:23.908Z,24.88
2016-08-02T05:14:23.936Z,25.45
2016-08-02T05:15:09.043Z,25.61
2016-08-02T05:16:09.071Z,25.6
2016-08-02T05:17:09.106Z,25.92
2016-08-02T05:18:09.142Z,26.17
2016-08-02T05:19:09.163Z,26.3
2016-08-02T05:20:09.198Z,26.4
2016-08-02T05:21:09.224Z,26.51
2016-08-02T05:22:09.252Z,27.27
2016-08-02T05:23:09.283Z,27.74
2016-08-02T05:24:09.318Z,27.85
2016-08-02T05:25:09.352Z,27.94
2016-08-02T05:26:24.311Z,28.02
2016-08-02T05:28:09.499Z,26.18
2016-08-02T05:29:09.477Z,25.36
2016-08-02T05:30:24.442Z,24.52
2016-08-02T05:31:09.557Z,24.1
2016-08-02T05:32:09.590Z,23.55
2016-08-02T05:33:09.608Z,23.31
2016-08-02T05:34:09.643Z,23.01
2016-08-02T05:35:09.673Z,22.82
2016-08-02T05:36:09.703Z,22.73
2016-08-02T05:37:09.739Z,22.39
2016-08-02T05:38:09.762Z,22.31
2016-08-02T05:39:09.845Z,22.09
2016-08-02T05:40:09.824Z,22.14
2016-08-02T05:41:09.853Z,22.31
2016-08-02T05:42:09.881Z,22.52
2016-08-02T05:43:24.843Z,23
2016-08-02T05:44:09.946Z,23.65
2016-08-02T05:45:24.906Z,24.9
2016-08-02T05:46:10.364Z,25.51
2016-08-02T05:47:10.037Z,25.76
2016-08-02T05:48:10.121Z,25.69
2016-08-02T05:49:10.105Z,25.55
2016-08-02T05:50:10.130Z,25.5
2016-08-02T05:51:10.164Z,25.46
2016-08-02T05:52:10.203Z,25.3
2016-08-02T05:54:10.257Z,25.32
2016-08-02T05:55:10.297Z,25.82
2016-08-02T05:56:10.329Z,26.48
2016-08-02T05:57:10.358Z,26.33
2016-08-02T05:58:25.320Z,26.17
2016-08-02T06:00:10.455Z,25.88
2016-08-02T06:01:10.492Z,26.18
2016-08-02T06:02:10.518Z,26.69
2016-08-02T06:03:10.553Z,27.13
2016-08-02T06:05:10.611Z,27.65
2016-08-02T06:06:10.649Z,27.92
2016-08-02T06:07:10.686Z,28.41
2016-08-02T06:08:10.719Z,28.77
2016-08-02T06:09:10.749Z,29
2016-08-02T06:10:10.790Z,29.3
2016-08-02T06:11:10.818Z,29.24
2016-08-02T06:13:10.886Z,29.67
2016-08-02T06:14:10.920Z,29.57
2016-08-02T06:15:10.953Z,29.31
2016-08-02T06:16:10.983Z,29.51
2016-08-02T06:17:25.942Z,29.18
2016-08-02T06:18:11.054Z,28.7
2016-08-02T06:19:11.088Z,28.12
2016-08-02T06:20:11.118Z,27.62
2016-08-02T06:21:11.149Z,27
2016-08-02T06:22:11.189Z,26.7
2016-08-02T06:23:11.219Z,26.35
2016-08-02T06:24:11.258Z,26.05
2016-08-02T06:25:11.290Z,25.7
2016-08-02T06:26:11.319Z,25.33
2016-08-02T06:27:11.362Z,24.61
2016-08-02T06:28:11.395Z,24.6
2016-08-02T06:29:11.417Z,24.42
2016-08-02T06:30:26.379Z,24.09
2016-08-02T06:31:11.479Z,23.9
2016-08-02T06:32:11.514Z,23.87
2016-08-02T06:33:26.471Z,23.57
2016-08-02T06:34:11.580Z,23.55
2016-08-02T06:35:11.609Z,23.43
2016-08-02T06:36:11.636Z,23.15
2016-08-02T06:37:11.665Z,22.97
2016-08-02T06:38:11.701Z,22.98
2016-08-02T06:39:11.734Z,22.94
2016-08-02T06:40:11.763Z,22.79
2016-08-02T06:41:11.790Z,22.64
2016-08-02T06:42:11.847Z,22.68
2016-08-02T06:43:11.856Z,22.61
2016-08-02T06:44:11.883Z,22.47
2016-08-02T06:45:26.842Z,22.18
2016-08-02T06:46:11.943Z,22.07
2016-08-02T06:47:11.978Z,22.3
2016-08-02T06:48:12.059Z,22.4
2016-08-02T06:49:26.958Z,22.35
2016-08-02T06:50:12.067Z,22.35
2016-08-02T06:51:12.096Z,22.28
2016-08-02T06:52:12.122Z,22.27
2016-08-02T06:53:12.159Z,22.24
2016-08-02T06:54:12.232Z,22.43
2016-08-02T06:55:12.214Z,22.27
2016-08-02T06:56:12.247Z,22.31
2016-08-02T06:57:12.271Z,22.28
2016-08-02T06:58:12.299Z,22.05
2016-08-02T06:59:12.333Z,21.96
2016-08-02T07:00:27.290Z,21.83
2016-08-02T07:01:12.385Z,21.69
2016-08-02T07:02:12.427Z,21.38
2016-08-02T07:03:27.377Z,21.5
2016-08-02T07:04:27.405Z,21.37
2016-08-02T07:05:27.432Z,21.28
2016-08-02T07:06:12.540Z,21.27
2016-08-02T07:07:12.571Z,21.28
2016-08-02T07:08:12.599Z,21.29
2016-08-02T07:09:12.625Z,21.1
2016-08-02T07:10:12.646Z,20.95
2016-08-02T07:11:12.682Z,20.82
2016-08-02T07:12:12.721Z,20.85
2016-08-02T07:13:12.736Z,20.91
2016-08-02T07:14:12.769Z,20.87
2016-08-02T07:15:12.797Z,20.91
2016-08-02T07:16:12.829Z,20.76
2016-08-02T07:17:12.855Z,20.8
2016-08-02T07:18:27.807Z,20.66
2016-08-02T07:19:12.907Z,20.66
2016-08-02T07:20:27.867Z,20.58
2016-08-02T07:21:12.972Z,20.54
2016-08-02T07:24:13.049Z,20.41
2016-08-02T07:25:13.082Z,20.28
2016-08-02T07:26:13.106Z,20.24
2016-08-02T07:27:13.136Z,20.26
2016-08-02T07:28:13.162Z,20.28
2016-08-02T07:29:13.194Z,20.18
2016-08-02T07:30:13.218Z,20.13
2016-08-02T07:31:13.247Z,20.11
2016-08-02T07:32:13.288Z,20.2
2016-08-02T07:33:13.304Z,20.2
2016-08-02T07:35:13.364Z,20.17
2016-08-02T07:36:13.389Z,20.24
2016-08-02T07:37:13.412Z,20.23
2016-08-02T07:38:13.445Z,20.28
2016-08-02T07:39:13.480Z,20.32
2016-08-02T07:40:13.504Z,20.28
2016-08-02T07:41:13.528Z,20.36
2016-08-02T07:42:13.555Z,20.41
2016-08-02T07:43:13.582Z,20.36
2016-08-02T07:44:13.611Z,20.48
2016-08-02T07:45:13.648Z,20.47
2016-08-02T07:47:13.706Z,20.55
2016-08-02T07:48:13.727Z,20.76
2016-08-02T07:50:13.780Z,20.8
2016-08-02T07:52:28.756Z,20.72
2016-08-02T07:53:28.785Z,20.77
2016-08-02T07:54:13.887Z,20.88
2016-08-02T07:55:13.917Z,20.85
2016-08-02T07:56:13.946Z,20.89
2016-08-02T07:57:13.974Z,21.01
2016-08-02T07:58:14.001Z,20.98
2016-08-02T08:00:14.209Z,20.87
2016-08-02T08:01:14.085Z,20.69
2016-08-02T08:02:14.116Z,20.76
2016-08-02T08:03:14.141Z,20.62
2016-08-02T08:05:14.198Z,20.52
2016-08-02T08:06:14.229Z,20.51
2016-08-02T08:07:14.255Z,20.5
2016-08-02T08:08:29.205Z,20.51
2016-08-02T08:09:14.307Z,20.51
2016-08-02T08:10:14.340Z,20.42
2016-08-02T08:11:14.363Z,20.42
2016-08-02T08:12:14.393Z,20.42
2016-08-02T08:13:14.430Z,20.43
2016-08-02T08:14:14.453Z,20.52
2016-08-02T08:15:14.474Z,20.5
2016-08-02T08:16:14.504Z,20.47
2016-08-02T08:17:14.527Z,20.38
2016-08-02T08:18:14.558Z,20.29
2016-08-02T08:19:14.593Z,20.24
2016-08-02T08:20:14.619Z,20.23
2016-08-02T08:21:29.567Z,20.13
2016-08-02T08:22:14.664Z,20.17
2016-08-02T08:23:29.622Z,20.17
2016-08-02T08:24:29.648Z,20.28
2016-08-02T08:25:14.756Z,20.03
2016-08-02T08:26:14.795Z,20.06
2016-08-02T08:27:14.815Z,20.03
2016-08-02T08:28:14.834Z,20.01
2016-08-02T08:29:14.867Z,20.05
2016-08-02T08:30:14.900Z,19.98
2016-08-02T08:31:14.922Z,19.95
2016-08-02T08:32:14.965Z,19.99
2016-08-02T08:33:14.969Z,19.87
2016-08-02T08:34:14.999Z,19.88
2016-08-02T08:35:15.034Z,19.71
2016-08-02T08:36:15.054Z,19.76
2016-08-02T08:37:15.087Z,19.73
2016-08-02T08:38:15.122Z,19.77
2016-08-02T08:39:15.141Z,19.83
2016-08-02T08:40:30.090Z,19.87
2016-08-02T08:41:15.193Z,19.86
2016-08-02T08:42:15.226Z,19.98
2016-08-02T08:43:15.253Z,20.06
2016-08-02T08:44:15.273Z,20.14
2016-08-02T08:45:15.304Z,20.17
2016-08-02T08:46:15.328Z,20.16
2016-08-02T08:47:15.356Z,20.24
2016-08-02T08:48:15.388Z,20.2
2016-08-02T08:49:15.413Z,20.28
2016-08-02T08:51:15.475Z,20.38
2016-08-02T08:52:15.495Z,20.42
2016-08-02T08:53:15.573Z,20.41
2016-08-02T08:54:15.554Z,20.51
2016-08-02T08:55:30.507Z,20.58
2016-08-02T08:56:15.607Z,20.61
2016-08-02T08:57:15.637Z,20.69
2016-08-02T08:58:15.667Z,20.8
2016-08-02T08:59:15.692Z,20.89
2016-08-02T09:00:16.074Z,20.79
2016-08-02T09:01:15.747Z,20.73
2016-08-02T09:02:15.776Z,20.85
2016-08-02T09:03:15.802Z,20.82
2016-08-02T09:04:15.823Z,20.77
2016-08-02T09:06:30.813Z,20.97
2016-08-02T09:07:30.836Z,21.01
2016-08-02T09:08:15.947Z,20.98
2016-08-02T09:09:15.969Z,21.06
2016-08-02T09:11:16.025Z,21.31
2016-08-02T09:12:16.049Z,21.29
2016-08-02T09:13:16.078Z,21.34
2016-08-02T09:14:16.102Z,21.31
2016-08-02T09:15:16.136Z,21.43
2016-08-02T09:16:16.166Z,21.4
2016-08-02T09:17:16.188Z,21.38
2016-08-02T09:18:16.219Z,21.4
2016-08-02T09:19:16.246Z,21.37
2016-08-02T09:20:16.275Z,21.58
2016-08-02T09:21:16.300Z,21.56
2016-08-02T09:22:16.334Z,21.47
2016-08-02T09:23:31.285Z,21.56
2016-08-02T09:24:16.387Z,21.58
2016-08-02T09:26:16.440Z,21.52
2016-08-02T09:27:31.390Z,21.59
2016-08-02T09:28:16.500Z,21.64
2016-08-02T09:29:16.520Z,21.58
2016-08-02T09:30:16.549Z,21.53
2016-08-02T09:31:16.584Z,21.44
2016-08-02T09:32:16.627Z,21.49
2016-08-02T09:33:16.640Z,21.61
2016-08-02T09:34:16.665Z,21.74
2016-08-02T09:35:16.685Z,21.79
2016-08-02T09:36:16.721Z,21.69
2016-08-02T09:37:31.678Z,21.72
2016-08-02T09:38:16.781Z,21.75
2016-08-02T09:41:16.867Z,21.75
2016-08-02T09:42:16.883Z,21.86
2016-08-02T09:43:31.844Z,21.82
2016-08-02T09:44:16.946Z,21.69
2016-08-02T09:45:16.975Z,21.5
2016-08-02T09:46:16.997Z,21.56
2016-08-02T09:47:17.027Z,21.4
2016-08-02T09:48:17.058Z,21.38
2016-08-02T09:49:32.014Z,21.35
2016-08-02T09:50:17.118Z,21.42
2016-08-02T09:51:17.140Z,21.4
2016-08-02T09:52:17.166Z,21.28
2016-08-02T09:53:17.200Z,21.35
2016-08-02T09:54:17.231Z,21.49
2016-08-02T09:55:17.258Z,21.69
2016-08-02T09:57:17.309Z,21.98
2016-08-02T09:58:32.258Z,22.06
2016-08-02T09:59:32.285Z,22.12
2016-08-02T10:00:17.392Z,22.2
2016-08-02T10:01:17.416Z,22.27
2016-08-02T10:02:17.444Z,22.25
2016-08-02T10:03:17.529Z,22.37
2016-08-02T10:04:17.497Z,22.51
2016-08-02T10:05:17.540Z,22.46
2016-08-02T10:06:32.507Z,22.37
2016-08-02T10:07:17.584Z,22.51
2016-08-02T10:08:17.611Z,22.33
2016-08-02T10:09:17.645Z,22.21
2016-08-02T10:10:17.666Z,22.06
2016-08-02T10:11:32.626Z,22.1
2016-08-02T10:12:17.730Z,22.14
2016-08-02T10:13:17.759Z,22.1
2016-08-02T10:14:17.786Z,21.96
2016-08-02T10:15:32.746Z,21.75
2016-08-02T10:16:17.846Z,21.75
2016-08-02T10:17:17.877Z,21.74
2016-08-02T10:18:17.893Z,21.56
2016-08-02T10:19:17.923Z,21.58
2016-08-02T10:20:18.657Z,21.49
2016-08-02T10:21:17.980Z,21.47
2016-08-02T10:22:18.004Z,21.43
2016-08-02T10:23:18.039Z,21.42
2016-08-02T10:24:18.067Z,21.44
2016-08-02T10:25:18.091Z,21.4
2016-08-02T10:26:18.125Z,21.24
2016-08-02T10:27:33.075Z,21.42
2016-08-02T10:28:33.102Z,21.37
2016-08-02T10:29:18.210Z,21.4
2016-08-02T10:30:33.158Z,21.37
2016-08-02T10:31:18.262Z,21.34
2016-08-02T10:32:18.289Z,21.34
2016-08-02T10:33:18.317Z,21.35
2016-08-02T10:34:18.346Z,21.34
2016-08-02T10:35:18.373Z,21.37
2016-08-02T10:36:18.403Z,21.35
2016-08-02T10:37:18.440Z,21.44
2016-08-02T10:38:18.472Z,21.34
2016-08-02T10:39:18.483Z,21.24
2016-08-02T10:41:18.544Z,21.25
2016-08-02T10:42:33.494Z,21.4
2016-08-02T10:44:18.634Z,21.42
2016-08-02T10:45:18.653Z,21.47
2016-08-02T10:46:18.684Z,21.65
2016-08-02T10:47:19.399Z,21.61
2016-08-02T10:48:18.731Z,21.64
2016-08-02T10:49:18.769Z,21.79
2016-08-02T10:50:18.797Z,21.94
2016-08-02T10:51:18.824Z,21.94
2016-08-02T10:52:18.854Z,22.1
2016-08-02T10:53:18.874Z,22.07
2016-08-02T10:54:18.904Z,22.03
2016-08-02T10:55:19.626Z,21.99
2016-08-02T10:56:18.956Z,22.07
2016-08-02T10:57:18.994Z,22.28
2016-08-02T10:58:19.019Z,22.22
2016-08-02T10:59:19.047Z,22.33
2016-08-02T11:00:33.995Z,22.55
2016-08-02T11:01:19.105Z,22.58
2016-08-02T11:02:34.070Z,22.8
2016-08-02T11:03:19.210Z,22.76
2016-08-02T11:04:19.191Z,22.79
2016-08-02T11:05:19.216Z,22.83
2016-08-02T11:06:19.241Z,22.64
2016-08-02T11:07:19.269Z,22.76
2016-08-02T11:08:19.297Z,22.76
2016-08-02T11:09:20.031Z,22.7
2016-08-02T11:10:19.355Z,22.55
2016-08-02T11:11:19.388Z,22.58
2016-08-02T11:12:19.415Z,22.61
2016-08-02T11:13:19.444Z,22.62
2016-08-02T11:14:19.465Z,22.47
2016-08-02T11:15:34.422Z,22.57
2016-08-02T11:16:19.525Z,22.7
2016-08-02T11:17:19.560Z,22.65
2016-08-02T11:18:34.504Z,22.82
2016-08-02T11:19:19.616Z,22.68
2016-08-02T11:20:19.637Z,22.62
2016-08-02T11:21:19.669Z,22.14
2016-08-02T11:22:19.704Z,22.02
2016-08-02T11:23:19.719Z,22.22
2016-08-02T11:24:19.757Z,22.27
2016-08-02T11:25:19.775Z,22.33
2016-08-02T11:26:19.866Z,22.35
2016-08-02T11:28:19.871Z,22.47
2016-08-02T11:30:34.852Z,22.42
2016-08-02T11:31:19.951Z,22.28
2016-08-02T11:32:19.987Z,22.31
2016-08-02T11:33:20.011Z,22.43
2016-08-02T11:34:34.961Z,22.42
2016-08-02T11:35:20.067Z,22.25
2016-08-02T11:36:20.096Z,22.24
2016-08-02T11:37:20.118Z,22.22
2016-08-02T11:38:20.148Z,22.24
2016-08-02T11:39:20.178Z,21.9
2016-08-02T11:40:20.208Z,22
2016-08-02T11:41:20.237Z,22.06
2016-08-02T11:42:20.265Z,21.99
2016-08-02T11:43:20.286Z,21.92
2016-08-02T11:44:20.327Z,21.83
2016-08-02T11:45:20.355Z,21.69
2016-08-02T11:46:20.378Z,21.65
2016-08-02T11:47:20.407Z,21.56
2016-08-02T11:48:20.429Z,21.58
2016-08-02T11:49:20.458Z,21.58
2016-08-02T11:50:35.417Z,21.52
2016-08-02T11:51:20.524Z,21.38
2016-08-02T11:52:20.548Z,21.32
2016-08-02T11:53:20.576Z,21.34
2016-08-02T11:54:20.604Z,21.29
2016-08-02T11:55:20.624Z,21.31
2016-08-02T11:56:20.652Z,21.24
2016-08-02T11:57:20.689Z,21.32
2016-08-02T11:58:20.719Z,21.19
2016-08-02T11:59:20.742Z,20.94
2016-08-02T12:00:20.784Z,20.95
2016-08-02T12:01:35.724Z,20.77
2016-08-02T12:02:20.832Z,20.69
2016-08-02T12:03:20.858Z,20.61
2016-08-02T12:04:20.885Z,20.74
2016-08-02T12:05:35.881Z,20.64
2016-08-02T12:06:20.954Z,20.51
2016-08-02T12:07:35.887Z,20.54
2016-08-02T12:08:20.993Z,20.48
2016-08-02T12:09:21.032Z,20.24
2016-08-02T12:10:21.058Z,20.41
2016-08-02T12:11:21.074Z,20.35
2016-08-02T12:13:21.128Z,20.36
2016-08-02T12:14:21.165Z,20.24
2016-08-02T12:15:21.186Z,20.33
2016-08-02T12:16:36.141Z,20.36
2016-08-02T12:18:36.195Z,20.31
2016-08-02T12:19:21.306Z,20.28
2016-08-02T12:20:22.029Z,20.31
2016-08-02T12:21:36.273Z,20.47
2016-08-02T12:22:36.300Z,20.36
2016-08-02T12:23:21.409Z,20.58
2016-08-02T12:24:22.136Z,20.69
2016-08-02T12:25:21.467Z,20.72
2016-08-02T12:26:21.494Z,20.77
2016-08-02T12:27:21.524Z,20.73
2016-08-02T12:28:21.548Z,20.7
2016-08-02T12:29:21.575Z,20.69
2016-08-02T12:30:21.601Z,20.72
2016-08-02T12:31:21.629Z,20.72
2016-08-02T12:32:21.670Z,20.66
2016-08-02T12:33:36.612Z,20.55
2016-08-02T12:34:21.714Z,20.59
2016-08-02T12:35:21.749Z,20.58
2016-08-02T12:36:21.765Z,20.57
2016-08-02T12:37:36.714Z,20.73
2016-08-02T12:38:21.825Z,20.73
2016-08-02T12:39:21.854Z,20.77
2016-08-02T12:40:21.879Z,20.88
2016-08-02T12:41:21.898Z,20.84
2016-08-02T12:42:21.930Z,20.8
2016-08-02T12:43:21.965Z,20.82
2016-08-02T12:44:21.985Z,20.84
2016-08-02T12:45:22.015Z,20.94
2016-08-02T12:46:22.041Z,20.97
2016-08-02T12:47:36.996Z,20.89
2016-08-02T12:48:22.092Z,20.64
2016-08-02T12:49:22.128Z,20.57
2016-08-02T12:50:22.151Z,20.66
2016-08-02T12:51:22.175Z,20.58
2016-08-02T12:52:22.201Z,20.58
2016-08-02T12:53:37.160Z,20.61
2016-08-02T12:54:37.184Z,20.55
2016-08-02T12:55:22.289Z,20.39
2016-08-02T12:56:22.320Z,20.24
2016-08-02T12:57:22.347Z,20.23
2016-08-02T12:58:22.384Z,20.03
2016-08-02T12:59:22.400Z,19.92
2016-08-02T13:00:22.430Z,19.74
2016-08-02T13:01:22.457Z,19.58
2016-08-02T13:02:22.485Z,19.55
2016-08-02T13:04:22.534Z,19.32
2016-08-02T13:05:22.566Z,19.25
2016-08-02T13:06:22.584Z,19.18
2016-08-02T13:07:22.622Z,19.16
2016-08-02T13:08:22.644Z,19.08
2016-08-02T13:09:37.594Z,18.98
2016-08-02T13:10:23.055Z,19.02
2016-08-02T13:11:22.735Z,19.07
2016-08-02T13:12:22.910Z,19.13
2016-08-02T13:13:23.490Z,19.18
2016-08-02T13:14:22.803Z,19.22
2016-08-02T13:15:22.836Z,19.13
2016-08-02T13:16:22.867Z,19.29
2016-08-02T13:17:22.897Z,19.32
2016-08-02T13:18:22.914Z,19.19
2016-08-02T13:19:37.872Z,19.06
2016-08-02T13:20:23.211Z,19
2016-08-02T13:21:22.993Z,18.94
2016-08-02T13:22:23.029Z,18.95
2016-08-02T13:23:23.056Z,18.91
2016-08-02T13:24:23.075Z,18.9
2016-08-02T13:25:38.032Z,18.88
2016-08-02T13:26:23.964Z,18.73
2016-08-02T13:27:23.155Z,18.78
2016-08-02T13:28:23.182Z,18.73
2016-08-02T13:29:23.214Z,18.52
2016-08-02T13:30:23.242Z,18.44
2016-08-02T13:31:23.283Z,18.36
2016-08-02T13:32:23.303Z,18.41
2016-08-02T13:34:23.355Z,18.41
2016-08-02T13:35:23.376Z,18.42
2016-08-02T13:36:38.329Z,18.33
2016-08-02T13:37:23.432Z,18.17
2016-08-02T13:38:23.465Z,18.15
2016-08-02T13:39:23.487Z,18.14
2016-08-02T13:40:38.429Z,18.27